Time;durP1;ratioP1;P1;durP2;ratioP2;P2;SDS_P1;SDS_P2;PMS_P1;PMS_P2;Temp;Humidity;BMP_temperature;BMP_pressure;BME280_temperature;BME280_humidity;BME280_pressure;Samples;Min_cycle;Max_cycle;Signal;HPM_P1;HPM_P2
2022/12/22 03:25:52;;;;;;;275.92;36.45;;;;;;;9.52;100.00;99875.25;4995427;28;20048;-77
2022/12/22 03:28:18;;;;;;;300.27;35.10;;;;;;;9.50;100.00;99870.94;4972427;28;20045;-77
2022/12/22 03:30:43;;;;;;;555.75;39.63;;;;;;;9.40;100.00;99870.06;4993093;28;20084;-77
2022/12/22 03:33:09;;;;;;;676.40;41.33;;;;;;;9.33;100.00;99862.41;4984271;28;20031;-77
2022/12/22 03:35:34;;;;;;;454.92;39.78;;;;;;;9.25;100.00;99870.41;4987293;28;20043;-77
2022/12/22 03:38:02;;;;;;;556.03;38.90;;;;;;;9.23;100.00;99869.69;4983255;28;20081;-77
2022/12/22 03:40:31;;;;;;;440.10;36.25;;;;;;;9.35;100.00;99868.59;4991878;28;20046;-77
2022/12/22 03:48:24;;;;;;;187.50;34.40;;;;;;;9.44;100.00;99869.59;4992178;28;20046;-77
2022/12/22 03:50:50;;;;;;;323.65;33.40;;;;;;;9.52;100.00;99868.91;4991255;28;20042;-77
2022/12/22 03:53:15;;;;;;;354.95;36.47;;;;;;;9.52;100.00;99863.47;4989054;28;20045;-77
2022/12/22 03:55:40;;;;;;;333.25;34.10;;;;;;;9.47;100.00;99865.75;4992903;28;20042;-77
2022/12/22 03:58:06;;;;;;;289.15;33.88;;;;;;;9.53;100.00;99865.19;4994957;28;20061;-78
2022/12/22 04:00:31;;;;;;;340.42;32.65;;;;;;;9.55;100.00;99866.78;4996836;28;20038;-78
2022/12/22 04:02:57;;;;;;;235.98;32.88;;;;;;;9.64;100.00;99862.34;4988319;28;20037;-77
2022/12/22 04:05:23;;;;;;;286.48;32.35;;;;;;;9.62;100.00;99860.75;4979965;28;20042;-78
2022/12/22 04:07:48;;;;;;;252.30;31.60;;;;;;;9.60;100.00;99852.69;4996942;28;20394;-78
2022/12/22 04:12:58;;;;;;;397.98;29.60;;;;;;;9.54;100.00;99848.66;4991305;28;20042;-78
2022/12/22 04:15:29;;;;;;;462.80;31.23;;;;;;;9.67;100.00;99853.00;4979060;28;20038;-77
2022/12/22 04:17:56;;;;;;;385.55;28.23;;;;;;;9.40;100.00;99842.72;4966161;28;20039;-78
2022/12/22 04:20:25;;;;;;;315.60;26.20;;;;;;;9.33;100.00;99839.66;4989294;28;20054;-78
2022/12/22 04:22:55;;;;;;;356.95;27.60;;;;;;;9.34;100.00;99834.06;4989135;28;20486;-78
2022/12/22 04:25:21;;;;;;;299.05;25.30;;;;;;;9.34;100.00;99839.53;4972114;28;20037;-77
2022/12/22 04:27:46;;;;;;;275.05;21.75;;;;;;;9.30;100.00;99838.09;4993721;28;20042;-77
2022/12/22 04:30:12;;;;;;;230.65;21.63;;;;;;;9.29;100.00;99832.75;4997679;28;20482;-78
2022/12/22 04:32:38;;;;;;;538.13;25.95;;;;;;;9.27;100.00;99832.03;4997621;28;20034;-78
2022/12/22 04:35:05;;;;;;;315.90;19.70;;;;;;;9.28;100.00;99829.19;4997255;28;20034;-77
2022/12/22 04:37:30;;;;;;;488.58;26.02;;;;;;;9.35;100.00;99826.75;4998141;28;20042;-78
2022/12/22 04:39:55;;;;;;;387.60;24.50;;;;;;;9.43;100.00;99837.84;4998238;28;20053;-78
2022/12/22 04:42:21;;;;;;;759.17;30.75;;;;;;;9.45;100.00;99832.25;4995762;28;20097;-78
2022/12/22 04:44:46;;;;;;;232.13;22.65;;;;;;;9.38;100.00;99824.59;4981909;28;20050;-78
2022/12/22 04:47:12;;;;;;;140.63;20.48;;;;;;;9.45;100.00;99830.38;4992699;28;20048;-78
2022/12/22 04:49:37;;;;;;;319.02;25.38;;;;;;;9.34;100.00;99825.88;4997058;28;20125;-78
2022/12/22 04:52:03;;;;;;;334.02;24.65;;;;;;;9.26;100.00;99835.75;4999138;28;20387;-77
2022/12/22 04:54:28;;;;;;;353.13;26.92;;;;;;;9.23;100.00;99828.72;5014690;28;20513;-78
2022/12/22 04:56:54;;;;;;;486.85;26.20;;;;;;;9.12;100.00;99835.16;4997250;28;20045;-78
2022/12/22 04:59:19;;;;;;;311.55;24.25;;;;;;;9.08;100.00;99838.28;4994320;28;20049;-78
2022/12/22 05:01:44;;;;;;;211.80;23.48;;;;;;;9.10;100.00;99839.00;4990472;28;20034;-78
2022/12/22 05:04:10;;;;;;;261.23;23.08;;;;;;;9.10;100.00;99842.63;4998946;28;20080;-78
2022/12/22 05:06:35;;;;;;;215.93;23.55;;;;;;;9.18;100.00;99844.63;4997075;28;20042;-78
2022/12/22 05:09:01;;;;;;;217.73;21.80;;;;;;;9.14;100.00;99843.19;4999513;28;20039;-79
2022/12/22 05:11:26;;;;;;;189.93;25.70;;;;;;;9.10;100.00;99842.63;4984662;28;20042;-78
2022/12/22 05:13:52;;;;;;;249.55;25.95;;;;;;;9.09;100.00;99843.63;4983085;28;20422;-78
2022/12/22 05:16:17;;;;;;;367.42;27.88;;;;;;;9.16;100.00;99838.47;5000083;28;20093;-78
2022/12/22 05:18:44;;;;;;;134.50;23.52;;;;;;;9.22;100.00;99848.00;4981813;28;20401;-78
2022/12/22 05:21:16;;;;;;;221.65;26.67;;;;;;;9.14;100.00;99854.13;4994492;28;20086;-77
2022/12/22 05:23:42;;;;;;;336.15;25.80;;;;;;;9.10;100.00;99855.38;4991729;28;20048;-77
2022/12/22 05:26:07;;;;;;;441.15;27.50;;;;;;;9.12;100.00;99847.94;4991161;28;20133;-78
2022/12/22 05:28:33;;;;;;;291.40;26.25;;;;;;;9.16;100.00;99849.38;4990200;28;20112;-77
2022/12/22 05:31:10;;;;;;;423.23;26.60;;;;;;;9.17;100.00;99845.66;4991519;28;20050;-80
2022/12/22 05:33:35;;;;;;;498.50;28.08;;;;;;;9.00;100.00;99834.38;4971917;28;20038;-78
2022/12/22 05:36:01;;;;;;;232.57;22.70;;;;;;;9.12;100.00;99837.88;4960761;28;20483;-76
2022/12/22 05:38:27;;;;;;;338.17;24.60;;;;;;;9.22;100.00;99842.53;4986778;28;20066;-76
2022/12/22 05:40:53;;;;;;;358.88;25.13;;;;;;;9.21;100.00;99838.91;4976213;28;20474;-76
2022/12/22 05:43:19;;;;;;;592.90;30.67;;;;;;;9.17;100.00;99830.13;4993771;28;20057;-76
2022/12/22 05:45:45;;;;;;;307.80;25.67;;;;;;;9.19;100.00;99828.13;4983352;28;20454;-77
2022/12/22 05:48:11;;;;;;;291.95;25.98;;;;;;;8.95;100.00;99833.03;4985108;28;20038;-77
2022/12/22 05:50:36;;;;;;;253.93;26.02;;;;;;;8.91;100.00;99837.91;4958564;28;20039;-77
2022/12/22 05:53:03;;;;;;;202.45;24.52;;;;;;;8.80;100.00;99832.53;4975728;28;20027;-77
2022/12/22 05:55:28;;;;;;;300.48;23.88;;;;;;;8.73;100.00;99837.69;4992787;28;20053;-77
2022/12/22 05:57:54;;;;;;;494.95;28.63;;;;;;;8.77;100.00;99836.44;4993811;28;20030;-77
2022/12/22 06:00:22;;;;;;;438.73;25.75;;;;;;;8.83;100.00;99849.50;4993039;28;20046;-77
2022/12/22 06:02:48;;;;;;;501.52;28.38;;;;;;;8.62;100.00;99857.75;4991630;28;20038;-77
2022/12/22 06:05:14;;;;;;;401.45;26.60;;;;;;;8.63;100.00;99877.69;4962607;28;20039;-77
2022/12/22 06:07:40;;;;;;;357.42;26.38;;;;;;;8.65;100.00;99879.28;4993615;28;20037;-77
2022/12/22 06:10:08;;;;;;;644.83;28.50;;;;;;;8.67;100.00;99878.28;4979967;28;20035;-77
2022/12/22 06:12:33;;;;;;;390.50;24.85;;;;;;;8.69;100.00;99884.47;4988583;28;20042;-77
2022/12/22 06:14:59;;;;;;;475.15;30.20;;;;;;;8.59;100.00;99873.50;4989182;28;20052;-77
2022/12/22 06:17:24;;;;;;;294.58;24.55;;;;;;;8.65;100.00;99890.19;4986571;28;20038;-77
2022/12/22 06:19:50;;;;;;;386.35;27.23;;;;;;;8.74;100.00;99885.81;4981688;28;20039;-78
2022/12/22 06:22:15;;;;;;;322.08;27.73;;;;;;;8.68;100.00;99891.81;4987573;28;20035;-77
2022/12/22 06:24:41;;;;;;;330.60;26.10;;;;;;;8.76;100.00;99896.59;4993347;28;20041;-77
2022/12/22 06:27:06;;;;;;;236.50;24.23;;;;;;;8.80;100.00;99898.06;4974886;28;20053;-77
2022/12/22 06:29:31;;;;;;;344.35;27.73;;;;;;;8.84;100.00;99913.19;4985292;28;20786;-77
2022/12/22 06:31:58;;;;;;;366.52;29.55;;;;;;;8.82;100.00;99915.16;4995770;28;20498;-77
2022/12/22 06:34:23;;;;;;;322.55;28.33;;;;;;;8.78;100.00;99920.00;4975839;28;20030;-77
2022/12/22 06:36:49;;;;;;;254.15;27.08;;;;;;;8.85;100.00;99925.81;4976989;28;20089;-77
2022/12/22 06:39:15;;;;;;;264.80;26.55;;;;;;;8.92;100.00;99931.59;4989704;28;20117;-77
2022/12/22 06:44:25;;;;;;;245.30;24.92;;;;;;;9.02;100.00;99944.31;5004843;28;20050;-77
2022/12/22 06:46:51;;;;;;;285.35;27.08;;;;;;;9.02;100.00;99948.91;4991265;28;20037;-77
2022/12/22 06:49:16;;;;;;;258.42;27.33;;;;;;;8.96;100.00;99947.56;4995800;28;20069;-77
2022/12/22 06:51:41;;;;;;;248.80;27.60;;;;;;;9.08;100.00;99963.91;4978398;28;20504;-77
2022/12/22 06:54:07;;;;;;;295.75;28.65;;;;;;;9.11;100.00;99966.34;4977188;28;20042;-77
2022/12/22 06:56:32;;;;;;;326.15;30.45;;;;;;;9.13;100.00;99964.34;4992058;28;20034;-77
2022/12/22 06:58:58;;;;;;;318.30;28.67;;;;;;;9.03;100.00;99967.00;4993437;28;20038;-77
2022/12/22 07:01:23;;;;;;;388.77;32.70;;;;;;;9.08;100.00;99970.22;4976114;28;20042;-77
2022/12/22 07:03:49;;;;;;;396.58;34.30;;;;;;;9.11;100.00;99974.56;4984937;28;20035;-77
2022/12/22 07:06:17;;;;;;;348.83;33.95;;;;;;;9.08;100.00;99978.41;4996584;28;20038;-77
2022/12/22 07:08:46;;;;;;;350.75;36.20;;;;;;;9.04;100.00;99981.56;4988013;28;20070;-77
2022/12/22 07:11:12;;;;;;;398.02;35.90;;;;;;;9.21;100.00;100000.03;4989049;28;20097;-78
2022/12/22 07:13:37;;;;;;;492.00;38.10;;;;;;;9.24;100.00;99996.19;4982442;28;20039;-77
2022/12/22 07:16:04;;;;;;;365.90;34.05;;;;;;;9.15;100.00;100003.31;4992758;28;20038;-77
2022/12/22 07:18:32;;;;;;;398.15;36.72;;;;;;;9.10;100.00;100008.31;4991118;28;20034;-78
2022/12/22 07:20:58;;;;;;;368.15;34.90;;;;;;;9.10;100.00;100011.03;4998578;28;20034;-78
2022/12/22 07:23:25;;;;;;;350.42;32.38;;;;;;;9.10;100.00;100014.66;4987557;28;20463;-78
2022/12/22 07:25:50;;;;;;;384.67;34.88;;;;;;;9.08;100.00;100024.81;4966100;28;20035;-78
2022/12/22 07:28:16;;;;;;;328.35;32.05;;;;;;;9.07;100.00;100031.31;4995693;28;20096;-78
2022/12/22 07:30:41;;;;;;;375.10;34.83;;;;;;;9.08;100.00;100034.88;4977368;28;20406;-77
2022/12/22 07:33:07;;;;;;;324.58;36.08;;;;;;;9.10;100.00;100038.34;4975401;28;20045;-78
2022/12/22 07:35:32;;;;;;;407.15;38.22;;;;;;;9.02;100.00;100050.81;4994310;28;20042;-78
2022/12/22 07:37:58;;;;;;;376.25;40.53;;;;;;;8.98;100.00;100049.31;4986783;28;20501;-77
2022/12/22 07:40:23;;;;;;;384.02;40.80;;;;;;;8.99;100.00;100039.28;4992209;28;20041;-78
2022/12/22 07:42:49;;;;;;;457.40;40.70;;;;;;;8.93;100.00;100037.94;4992564;28;20050;-78
2022/12/22 07:45:18;;;;;;;460.85;41.63;;;;;;;8.98;100.00;100043.84;5013302;28;20105;-78
2022/12/22 07:47:45;;;;;;;453.02;41.15;;;;;;;9.01;100.00;100053.66;4980251;28;20073;-78
2022/12/22 07:50:31;;;;;;;519.33;44.05;;;;;;;8.92;100.00;100055.31;4996179;28;20065;-78
2022/12/22 07:53:01;;;;;;;507.50;47.55;;;;;;;9.00;100.00;100055.53;4995870;28;20393;-78
2022/12/22 07:55:29;;;;;;;470.90;47.47;;;;;;;8.97;100.00;100060.41;4978091;28;20031;-78
2022/12/22 07:57:55;;;;;;;475.08;44.53;;;;;;;8.92;100.00;100070.81;4976792;28;20375;-77
2022/12/22 08:00:22;;;;;;;473.98;47.00;;;;;;;9.01;100.00;100079.09;4980357;28;20037;-77
2022/12/22 08:02:53;;;;;;;452.38;46.55;;;;;;;9.02;100.00;100075.38;4979394;28;20058;-77
2022/12/22 08:05:19;;;;;;;500.92;50.33;;;;;;;8.99;100.00;100075.63;4998186;28;20049;-77
2022/12/22 08:07:46;;;;;;;564.47;50.20;;;;;;;9.00;100.00;100082.84;4995867;28;20037;-77
2022/12/22 08:10:12;;;;;;;502.48;52.72;;;;;;;9.10;100.00;100082.03;4998053;28;20042;-77
2022/12/22 08:12:37;;;;;;;440.52;50.72;;;;;;;8.99;100.00;100072.91;4980625;28;20026;-77
2022/12/22 08:15:04;;;;;;;560.13;50.58;;;;;;;8.99;100.00;100080.25;4998052;28;20042;-78
2022/12/22 08:17:29;;;;;;;677.60;54.78;;;;;;;9.00;100.00;100088.31;4995837;28;20050;-77
2022/12/22 08:19:55;;;;;;;495.40;52.60;;;;;;;8.94;100.00;100099.75;4996406;28;20038;-77
2022/12/22 08:22:23;;;;;;;547.65;53.58;;;;;;;8.97;100.00;100113.13;4964762;28;20046;-78
2022/12/22 08:24:50;;;;;;;574.35;57.63;;;;;;;8.92;100.00;100117.22;4981618;28;20034;-78
2022/12/22 08:27:20;;;;;;;586.30;51.78;;;;;;;9.02;100.00;100149.09;4980712;28;20116;-78
2022/12/22 08:29:50;;;;;;;485.10;52.13;;;;;;;9.05;100.00;100145.25;4997713;28;20093;-78
2022/12/22 08:32:16;;;;;;;547.13;52.90;;;;;;;9.04;100.00;100150.84;4997259;28;20035;-78
2022/12/22 08:34:42;;;;;;;576.05;53.17;;;;;;;8.92;100.00;100150.88;4965400;28;20494;-78
2022/12/22 08:37:14;;;;;;;530.92;50.55;;;;;;;8.88;100.00;100159.44;4995986;28;20061;-78
2022/12/22 08:39:41;;;;;;;512.95;52.42;;;;;;;8.95;100.00;100167.00;4997733;28;20041;-78
2022/12/22 08:42:12;;;;;;;526.63;50.85;;;;;;;8.90;100.00;100162.91;4979224;28;20060;-78
2022/12/22 08:44:37;;;;;;;458.30;51.58;;;;;;;8.88;100.00;100173.97;4979794;28;20131;-78
2022/12/22 08:47:03;;;;;;;469.75;52.83;;;;;;;8.89;100.00;100180.31;4996854;28;20069;-78
2022/12/22 08:49:29;;;;;;;531.55;51.25;;;;;;;8.99;100.00;100192.19;4997018;28;20050;-78
2022/12/22 08:51:55;;;;;;;440.25;49.80;;;;;;;8.92;100.00;100193.69;4995124;28;20041;-78
2022/12/22 08:54:23;;;;;;;377.25;46.40;;;;;;;8.93;100.00;100195.41;4996547;28;20038;-79
2022/12/22 08:56:50;;;;;;;436.13;47.50;;;;;;;8.85;100.00;100187.84;4997722;28;20100;-78
2022/12/22 08:59:16;;;;;;;364.30;43.33;;;;;;;9.01;100.00;100199.25;4996470;28;20034;-78
2022/12/22 09:01:49;;;;;;;379.25;46.05;;;;;;;8.90;100.00;100207.44;4996898;28;20122;-78
2022/12/22 09:04:16;;;;;;;402.50;48.28;;;;;;;9.10;100.00;100214.00;4968829;28;20457;-78
2022/12/22 09:06:43;;;;;;;334.63;42.95;;;;;;;9.04;100.00;100235.50;4977035;28;20509;-78
2022/12/22 09:09:11;;;;;;;341.17;43.78;;;;;;;9.02;100.00;100235.63;4995698;28;20490;-78
2022/12/22 09:11:37;;;;;;;359.65;46.08;;;;;;;8.93;100.00;100241.84;4998047;28;20030;-78
2022/12/22 09:14:03;;;;;;;370.30;50.55;;;;;;;9.01;100.00;100253.84;4972211;28;20034;-78
2022/12/22 09:16:30;;;;;;;328.67;46.90;;;;;;;8.97;100.00;100246.06;4980657;28;20042;-78
2022/12/22 09:18:55;;;;;;;340.63;46.42;;;;;;;8.97;100.00;100243.34;4997099;28;20041;-78
2022/12/22 09:21:22;;;;;;;310.52;47.40;;;;;;;8.91;100.00;100258.34;4996082;28;20046;-78
2022/12/22 09:23:48;;;;;;;347.33;46.17;;;;;;;8.97;100.00;100260.56;4995305;28;20489;-79
2022/12/22 09:26:16;;;;;;;356.88;48.03;;;;;;;9.01;100.00;100253.00;4980135;28;20046;-78
2022/12/22 09:28:43;;;;;;;336.33;45.58;;;;;;;8.81;100.00;100262.81;4996148;28;20081;-79
2022/12/22 09:31:09;;;;;;;348.38;46.10;;;;;;;8.76;100.00;100265.06;4996023;28;20038;-78
2022/12/22 09:33:35;;;;;;;309.77;43.45;;;;;;;8.68;100.00;100268.41;4978809;28;20023;-78
2022/12/22 09:36:06;;;;;;;303.25;45.25;;;;;;;8.67;100.00;100265.78;4995842;28;20382;-77
2022/12/22 09:38:31;;;;;;;299.95;46.03;;;;;;;8.63;100.00;100273.38;4994441;28;20040;-78
2022/12/22 09:40:57;;;;;;;314.08;46.08;;;;;;;8.60;100.00;100281.78;4996453;28;20113;-77
2022/12/22 09:43:28;;;;;;;315.52;46.20;;;;;;;8.63;100.00;100276.09;4995047;28;20046;-77
2022/12/22 09:45:56;;;;;;;316.13;45.85;;;;;;;8.71;100.00;100279.06;4995603;28;20045;-77
2022/12/22 09:48:22;;;;;;;317.85;47.67;;;;;;;8.78;100.00;100283.03;4996037;28;20460;-77
2022/12/22 09:50:47;;;;;;;316.80;47.03;;;;;;;8.76;100.00;100281.44;4996278;28;20038;-77
2022/12/22 09:53:22;;;;;;;319.00;46.80;;;;;;;8.66;100.00;100278.59;4994603;28;20034;-77
2022/12/22 09:55:50;;;;;;;294.55;43.17;;;;;;;8.79;100.00;100286.66;4994228;28;20026;-78
2022/12/22 09:58:22;;;;;;;301.35;47.17;;;;;;;8.97;100.00;100293.34;4994761;28;20057;-78
2022/12/22 10:01:00;;;;;;;288.48;44.78;;;;;;;9.14;100.00;100302.00;4995091;28;20561;-78
2022/12/22 10:03:38;;;;;;;298.63;48.53;;;;;;;8.95;100.00;100298.06;4994993;28;20038;-78
2022/12/22 10:06:33;;;;;;;295.35;45.38;;;;;;;9.00;100.00;100293.09;4994789;28;20038;-78
2022/12/22 10:09:13;;;;;;;292.98;45.22;;;;;;;8.91;100.00;100291.09;4978769;28;20487;-77
2022/12/22 10:11:38;;;;;;;267.58;45.05;;;;;;;8.88;100.00;100295.94;4978423;28;20386;-77
2022/12/22 10:14:04;;;;;;;289.55;46.97;;;;;;;8.85;100.00;100297.06;4977693;28;20026;-77
2022/12/22 10:16:29;;;;;;;291.60;44.83;;;;;;;9.02;100.00;100296.56;4995234;28;20077;-79
2022/12/22 10:18:59;;;;;;;258.33;44.70;;;;;;;9.12;100.00;100302.13;4994219;28;20030;-78
2022/12/22 10:21:25;;;;;;;266.15;42.33;;;;;;;8.93;100.00;100296.44;4994909;28;20038;-77
2022/12/22 10:23:51;;;;;;;251.00;44.25;;;;;;;8.95;100.00;100300.78;4995682;28;20049;-78
2022/12/22 10:26:26;;;;;;;225.63;41.78;;;;;;;8.99;100.00;100299.53;4995769;28;20389;-78
2022/12/22 10:28:57;;;;;;;228.68;40.53;;;;;;;9.04;100.00;100306.50;4993964;28;20509;-77
2022/12/22 10:31:26;;;;;;;236.52;44.45;;;;;;;9.06;100.00;100309.97;4996056;28;20040;-78
2022/12/22 10:33:54;;;;;;;229.77;42.95;;;;;;;9.00;100.00;100317.66;4994466;28;20042;-79
2022/12/22 10:36:25;;;;;;;251.27;44.00;;;;;;;9.01;100.00;100318.53;4995159;28;20097;-79
2022/12/22 10:38:59;;;;;;;236.68;42.90;;;;;;;8.96;100.00;100329.81;4994057;28;20040;-79
2022/12/22 10:41:28;;;;;;;243.82;44.40;;;;;;;9.10;100.00;100322.34;4977567;28;20045;-79
2022/12/22 10:43:57;;;;;;;258.88;45.88;;;;;;;9.19;100.00;100324.34;4995025;28;20061;-79
2022/12/22 10:46:34;;;;;;;255.25;49.85;;;;;;;9.14;100.00;100329.31;4994727;28;20048;-78
2022/12/22 10:49:38;;;;;;;274.17;48.42;;;;;;;9.09;100.00;100326.09;4994772;28;20038;-78
2022/12/22 10:52:31;;;;;;;258.67;50.95;;;;;;;9.03;100.00;100330.19;4994175;28;20030;-78
2022/12/22 10:55:31;;;;;;;254.02;51.25;;;;;;;8.83;100.00;100338.13;4996099;28;20030;-78
2022/12/22 10:58:09;;;;;;;236.05;50.40;;;;;;;8.98;100.00;100336.00;4972101;28;20046;-78
2022/12/22 11:00:36;;;;;;;230.57;50.88;;;;;;;8.88;100.00;100332.28;4995015;28;20035;-78
2022/12/22 11:03:03;;;;;;;230.60;49.03;;;;;;;8.69;100.00;100337.50;4995532;28;20038;-78
2022/12/22 11:05:31;;;;;;;213.68;44.08;;;;;;;8.73;100.00;100333.53;4962711;28;20073;-79
2022/12/22 11:08:04;;;;;;;208.40;48.13;;;;;;;9.01;100.00;100343.09;4994429;28;20125;-78
2022/12/22 11:10:39;;;;;;;239.38;48.97;;;;;;;9.38;100.00;100340.09;4993445;28;20099;-79
2022/12/22 11:13:14;;;;;;;242.23;47.95;;;;;;;9.47;100.00;100350.25;4993778;28;20054;-78
2022/12/22 11:15:45;;;;;;;217.20;41.50;;;;;;;9.57;100.00;100353.09;4974303;28;20041;-78
2022/12/22 11:18:32;;;;;;;175.20;39.55;;;;;;;9.44;100.00;100358.69;4958924;28;20038;-78
2022/12/22 11:21:21;;;;;;;174.75;39.22;;;;;;;9.41;100.00;100349.91;4974784;28;20030;-78
2022/12/22 11:24:04;;;;;;;137.90;30.27;;;;;;;9.10;100.00;100363.31;4992094;28;20112;-78
2022/12/22 11:26:48;;;;;;;149.65;31.35;;;;;;;9.01;100.00;100379.47;4995629;28;20066;-78
2022/12/22 11:29:52;;;;;;;151.02;32.20;;;;;;;9.06;100.00;100373.63;4994128;28;20485;-78
2022/12/22 11:32:41;;;;;;;168.30;35.80;;;;;;;9.03;100.00;100371.16;4972267;28;20039;-78
2022/12/22 11:35:29;;;;;;;180.27;37.80;;;;;;;8.84;100.00;100371.78;4984534;28;20121;-78
2022/12/22 11:38:02;;;;;;;192.23;42.17;;;;;;;8.86;100.00;100377.09;4975843;28;20043;-78
2022/12/22 11:40:49;;;;;;;186.05;36.15;;;;;;;8.83;100.00;100376.34;4975040;28;20085;-79
2022/12/22 11:43:25;;;;;;;223.15;42.90;;;;;;;8.70;100.00;100372.84;4974386;28;20047;-78
2022/12/22 11:46:01;;;;;;;231.90;44.92;;;;;;;8.82;100.00;100379.19;4958878;28;20386;-78
2022/12/22 11:48:38;;;;;;;204.50;42.72;;;;;;;8.97;100.00;100382.59;4990210;28;20026;-78
2022/12/22 11:51:33;;;;;;;171.15;35.80;;;;;;;8.99;100.00;100377.84;4995111;28;20394;-78
2022/12/22 11:54:01;;;;;;;134.88;30.02;;;;;;;9.00;100.00;100385.94;4975788;28;20398;-78
2022/12/22 11:56:58;;;;;;;160.25;34.03;;;;;;;9.09;100.00;100378.00;4994697;28;20034;-78
2022/12/22 11:59:44;;;;;;;160.75;34.35;;;;;;;8.86;100.00;100371.66;4993948;28;20222;-78
2022/12/22 12:02:46;;;;;;;177.23;36.70;;;;;;;8.74;100.00;100382.56;4993644;28;20045;-78
2022/12/22 12:05:24;;;;;;;174.35;41.08;;;;;;;8.75;100.00;100373.34;4992341;28;20082;-78
2022/12/22 12:08:11;;;;;;;149.90;36.58;;;;;;;8.75;100.00;100378.81;4973892;28;20034;-78
2022/12/22 12:11:10;;;;;;;177.57;42.50;;;;;;;8.84;100.00;100382.69;4975614;28;20038;-79
2022/12/22 12:13:58;;;;;;;192.02;41.55;;;;;;;8.81;100.00;100374.75;4975549;28;20081;-78
2022/12/22 12:16:33;;;;;;;171.20;38.55;;;;;;;8.77;100.00;100374.13;4987739;28;20105;-78
2022/12/22 12:18:58;;;;;;;182.50;41.20;;;;;;;8.89;100.00;100385.91;4993930;28;20482;-78
2022/12/22 12:21:28;;;;;;;174.70;38.60;;;;;;;8.89;100.00;100366.81;4996082;28;20043;-79
2022/12/22 12:24:23;;;;;;;162.00;38.83;;;;;;;8.99;100.00;100351.41;4980964;28;20045;-80
2022/12/22 12:26:49;;;;;;;158.20;37.65;;;;;;;9.01;100.00;100345.81;4996770;28;20030;-79
2022/12/22 12:29:27;;;;;;;200.68;45.53;;;;;;;8.93;100.00;100340.97;4997190;28;20364;-79
2022/12/22 12:32:01;;;;;;;183.20;41.60;;;;;;;8.95;100.00;100343.59;4996594;28;20046;-79
2022/12/22 12:34:32;;;;;;;175.90;42.15;;;;;;;9.04;100.00;100340.13;4996649;28;20481;-78
2022/12/22 12:37:13;;;;;;;195.82;42.83;;;;;;;9.06;100.00;100331.81;4996745;28;20030;-78
2022/12/22 12:40:03;;;;;;;186.43;42.05;;;;;;;9.16;100.00;100346.44;4997984;28;20507;-79
2022/12/22 12:42:39;;;;;;;162.32;39.70;;;;;;;9.08;100.00;100338.00;4980386;28;20055;-79
2022/12/22 12:45:38;;;;;;;173.27;42.60;;;;;;;9.15;100.00;100337.38;4974722;28;20387;-79
2022/12/22 12:48:19;;;;;;;161.68;38.33;;;;;;;9.17;100.00;100329.94;4980601;28;20026;-79
2022/12/22 12:50:55;;;;;;;168.93;40.70;;;;;;;9.23;100.00;100339.50;4980332;28;20053;-79
2022/12/22 12:53:28;;;;;;;160.70;38.13;;;;;;;9.26;100.00;100339.22;4980531;28;20073;-79
2022/12/22 12:56:03;;;;;;;167.65;38.28;;;;;;;9.18;100.00;100336.25;4996129;28;20474;-79
2022/12/22 12:58:34;;;;;;;147.45;38.50;;;;;;;9.22;100.00;100342.34;4997453;28;20035;-79
2022/12/22 13:01:02;;;;;;;148.82;37.08;;;;;;;9.26;100.00;100330.16;4996458;28;20038;-79
2022/12/22 13:03:30;;;;;;;135.45;35.08;;;;;;;9.35;100.00;100329.44;4995646;28;20105;-79
2022/12/22 13:06:07;;;;;;;135.23;32.15;;;;;;;9.22;100.00;100332.28;4996336;28;20042;-79
2022/12/22 13:09:21;;;;;;;124.80;32.25;;;;;;;9.28;100.00;100345.44;4996411;28;20030;-79
2022/12/22 13:11:49;;;;;;;127.55;32.95;;;;;;;9.28;100.00;100339.09;4974172;28;20042;-79
2022/12/22 13:14:52;;;;;;;126.55;29.98;;;;;;;9.27;100.00;100346.44;4979871;28;20053;-79
2022/12/22 13:17:46;;;;;;;127.07;31.30;;;;;;;9.33;100.00;100345.94;4976506;28;20106;-79
2022/12/22 13:20:17;;;;;;;139.38;31.67;;;;;;;9.30;100.00;100335.25;4978123;28;20031;-79
2022/12/22 13:22:43;;;;;;;133.75;29.15;;;;;;;9.25;100.00;100332.03;5008630;28;20030;-79
2022/12/22 13:25:18;;;;;;;124.63;30.67;;;;;;;9.40;100.00;100350.91;4976750;28;20039;-79
2022/12/22 13:27:44;;;;;;;127.97;30.77;;;;;;;9.46;100.00;100331.25;4994979;28;20085;-79
2022/12/22 13:30:15;;;;;;;117.82;30.10;;;;;;;9.49;100.00;100333.72;4978075;28;20038;-79
2022/12/22 13:32:44;;;;;;;115.22;29.15;;;;;;;9.57;100.00;100342.16;4975253;28;20118;-79
2022/12/22 13:35:29;;;;;;;120.60;29.50;;;;;;;9.49;100.00;100340.06;4977396;28;20463;-79
2022/12/22 13:37:56;;;;;;;108.13;28.73;;;;;;;9.43;100.00;100334.22;4959910;28;20038;-79
2022/12/22 13:40:40;;;;;;;97.05;28.27;;;;;;;9.25;100.00;100332.03;4960085;28;20402;-79
2022/12/22 13:43:14;;;;;;;107.82;27.15;;;;;;;9.20;100.00;100329.69;4999644;28;20058;-79
2022/12/22 13:45:52;;;;;;;115.18;28.95;;;;;;;9.18;100.00;100330.78;4996256;28;20023;-79
2022/12/22 13:48:21;;;;;;;116.03;29.60;;;;;;;9.17;100.00;100331.81;4995402;28;20038;-79
2022/12/22 13:50:51;;;;;;;116.80;29.65;;;;;;;9.14;100.00;100330.19;4995630;28;20038;-79
2022/12/22 13:53:37;;;;;;;120.88;31.48;;;;;;;9.17;100.00;100319.00;4995295;28;20036;-79
2022/12/22 13:56:11;;;;;;;112.50;29.50;;;;;;;9.04;100.00;100315.53;4994587;28;20397;-79
2022/12/22 13:58:40;;;;;;;125.13;31.58;;;;;;;9.07;100.00;100307.09;4995149;28;20500;-79
2022/12/22 14:01:08;;;;;;;121.72;28.98;;;;;;;9.14;100.00;100323.84;4995352;28;20041;-79
2022/12/22 14:03:34;;;;;;;109.32;28.60;;;;;;;9.10;100.00;100314.16;4996122;28;20047;-79
2022/12/22 14:06:00;;;;;;;97.38;26.88;;;;;;;9.03;100.00;100311.06;4996421;28;20035;-79
2022/12/22 14:08:25;;;;;;;83.15;23.50;;;;;;;9.03;100.00;100305.59;4978082;28;20048;-79
2022/12/22 14:10:53;;;;;;;88.43;23.65;;;;;;;9.02;100.00;100307.47;4979109;28;20026;-79
2022/12/22 14:13:24;;;;;;;80.40;22.60;;;;;;;9.00;100.00;100309.47;4996392;28;20034;-79
2022/12/22 14:15:59;;;;;;;75.32;22.50;;;;;;;9.00;100.00;100308.59;4991661;28;20030;-79
2022/12/22 14:18:25;;;;;;;61.17;18.95;;;;;;;8.98;100.00;100314.16;4991990;28;20034;-79
2022/12/22 14:20:51;;;;;;;72.50;21.05;;;;;;;8.92;100.00;100305.59;4960413;28;20094;-79
2022/12/22 14:23:22;;;;;;;88.05;23.33;;;;;;;8.91;100.00;100302.03;4959145;28;20446;-79
2022/12/22 14:25:49;;;;;;;68.20;23.58;;;;;;;8.92;100.00;100306.50;4991430;28;20030;-79
2022/12/22 14:28:24;;;;;;;80.93;24.95;;;;;;;8.89;100.00;100311.34;4975967;28;20035;-79
2022/12/22 14:30:53;;;;;;;82.38;23.73;;;;;;;8.85;100.00;100301.66;4959148;28;20030;-79
2022/12/22 14:33:28;;;;;;;85.65;24.38;;;;;;;8.84;100.00;100303.53;4975552;28;20139;-79
2022/12/22 14:36:18;;;;;;;84.32;24.70;;;;;;;8.81;100.00;100295.59;4974954;28;20394;-80
2022/12/22 14:38:47;;;;;;;80.28;23.75;;;;;;;8.81;100.00;100292.84;4976638;28;20110;-79
2022/12/22 14:44:12;;;;;;;88.40;23.90;;;;;;;8.79;100.00;100294.84;4975869;28;20042;-79
2022/12/22 14:46:37;;;;;;;82.03;22.70;;;;;;;8.69;100.00;100282.91;4974716;28;20027;-78
2022/12/22 14:49:03;;;;;;;80.57;23.35;;;;;;;8.74;100.00;100288.84;4990802;28;20054;-80
2022/12/22 14:51:29;;;;;;;83.43;23.65;;;;;;;8.65;100.00;100272.22;4959138;28;20030;-79
2022/12/22 14:53:57;;;;;;;85.93;25.70;;;;;;;8.69;100.00;100270.16;4974819;28;20030;-79
2022/12/22 14:56:24;;;;;;;82.47;24.52;;;;;;;8.62;100.00;100266.16;4976771;28;20030;-79
2022/12/22 14:58:50;;;;;;;85.85;25.42;;;;;;;8.54;100.00;100258.59;4991474;28;20038;-79